createdAt,value
2018-08-02T00:04:26.119Z,21
2018-08-02T00:09:28.531Z,20.9
2018-08-02T00:14:30.590Z,20.9
2018-08-02T00:19:33.034Z,20.8
2018-08-02T00:24:35.616Z,20.7
2018-08-02T00:29:38.125Z,20.6
2018-08-02T00:34:40.555Z,20.3
2018-08-02T00:39:42.946Z,20.2
2018-08-02T00:44:45.498Z,20.3
2018-08-02T00:49:47.968Z,20.3
2018-08-02T00:54:50.244Z,20.3
2018-08-02T00:59:53.058Z,20.2
2018-08-02T01:04:55.348Z,20.2
2018-08-02T01:09:57.851Z,20.2
2018-08-02T01:15:00.176Z,20.1
2018-08-02T01:20:03.233Z,20
2018-08-02T01:25:05.163Z,19.8
2018-08-02T01:30:07.478Z,19.8
2018-08-02T01:35:09.980Z,19.7
2018-08-02T01:45:14.999Z,19.5
2018-08-02T01:50:17.704Z,19.4
2018-08-02T01:55:19.770Z,19.4
2018-08-02T02:00:22.723Z,19.3
2018-08-02T02:05:24.654Z,19.2
2018-08-02T02:10:27.490Z,19.1
2018-08-02T02:15:29.576Z,19.1
2018-08-02T02:20:32.151Z,19
2018-08-02T02:25:35.439Z,19
2018-08-02T02:30:37.006Z,18.9
2018-08-02T02:35:39.411Z,18.8
2018-08-02T02:40:41.910Z,18.8
2018-08-02T02:45:44.358Z,18.8
2018-08-02T02:50:46.772Z,18.8
2018-08-02T02:55:49.343Z,18.7
2018-08-02T03:00:51.899Z,18.7
2018-08-02T03:05:54.151Z,18.6
2018-08-02T03:10:56.615Z,18.6
2018-08-02T03:15:59.091Z,18.5
2018-08-02T03:21:01.842Z,18.5
2018-08-02T03:26:04.375Z,18.4
2018-08-02T03:31:06.445Z,18.4
2018-08-02T03:36:08.935Z,18.4
2018-08-02T03:41:11.541Z,18.4
2018-08-02T03:46:13.892Z,18.4
2018-08-02T03:51:16.401Z,18.4
2018-08-02T03:56:18.789Z,18.5
2018-08-02T04:01:21.265Z,18.6
2018-08-02T04:06:23.799Z,18.7
2018-08-02T04:11:26.226Z,18.9
2018-08-02T04:16:28.599Z,19
2018-08-02T04:21:31.114Z,19.2
2018-08-02T04:26:33.559Z,19.1
2018-08-02T04:31:35.995Z,19.5
2018-08-02T04:36:43.638Z,19.9
2018-08-02T04:41:40.891Z,20.2
2018-08-02T04:46:43.394Z,20.6
2018-08-02T04:51:45.917Z,20.9
2018-08-02T04:56:48.345Z,21.3
2018-08-02T05:01:50.773Z,21.8
2018-08-02T05:06:53.257Z,22.3
2018-08-02T05:11:56.590Z,22.9
2018-08-02T05:16:58.477Z,23.3
2018-08-02T05:22:00.760Z,23.9
2018-08-02T05:32:05.576Z,23.9
2018-08-02T05:37:07.988Z,23.3
2018-08-02T05:42:10.423Z,22.9
2018-08-02T05:47:12.831Z,22.4
2018-08-02T05:52:15.279Z,22
2018-08-02T05:57:17.794Z,22.2
2018-08-02T06:07:29.676Z,22.1
2018-08-02T06:12:25.229Z,22.2
2018-08-02T06:17:27.598Z,22.2
2018-08-02T06:27:32.523Z,21.7
2018-08-02T06:32:34.960Z,21.6
2018-08-02T06:37:37.419Z,21.6
2018-08-02T06:42:40.027Z,21.5
2018-08-02T06:47:42.346Z,21.6
2018-08-02T06:52:44.831Z,21.9
2018-08-02T06:57:47.260Z,22.1
2018-08-02T07:02:49.714Z,22.2
2018-08-02T07:07:52.364Z,22.3
2018-08-02T07:12:54.777Z,22.4
2018-08-02T07:17:57.098Z,22.5
2018-08-02T07:22:59.763Z,22.8
2018-08-02T07:28:02.144Z,22.9
2018-08-02T07:33:04.534Z,22.9
2018-08-02T07:38:06.950Z,23.3
2018-08-02T07:43:09.485Z,23.9
2018-08-02T07:48:11.873Z,25.3
2018-08-02T07:53:14.303Z,26.6
2018-08-02T07:58:16.767Z,27.4
2018-08-02T08:03:19.287Z,27.7
2018-08-02T08:08:21.945Z,27.5
2018-08-02T08:13:24.388Z,27.4
2018-08-02T08:18:26.901Z,26.7
2018-08-02T08:23:29.132Z,26.1
2018-08-02T08:28:31.649Z,25.9
2018-08-02T08:33:33.992Z,26.4
2018-08-02T08:38:36.583Z,27.1
2018-08-02T08:43:38.913Z,26.9
2018-08-02T08:48:41.368Z,26.3
2018-08-02T08:53:44.254Z,25.8
2018-08-02T08:58:46.391Z,25.7
2018-08-02T09:03:48.866Z,25.8
2018-08-02T09:08:51.749Z,26.9
2018-08-02T09:13:53.856Z,29.5
2018-08-02T09:18:56.490Z,31.7
2018-08-02T09:23:58.716Z,32.5
2018-08-02T09:29:01.093Z,31.6
2018-08-02T09:34:03.492Z,30.3
2018-08-02T09:39:05.980Z,29.4
2018-08-02T09:44:08.433Z,28.7
2018-08-02T09:49:10.953Z,28.4
2018-08-02T09:54:13.539Z,28.3
2018-08-02T09:59:15.812Z,28.4
2018-08-02T10:04:18.251Z,28.4
2018-08-02T10:09:20.709Z,28.5
2018-08-02T10:14:23.296Z,28.7
2018-08-02T10:19:25.680Z,28.6
2018-08-02T10:24:28.206Z,28.5
2018-08-02T10:29:30.566Z,28.7
2018-08-02T10:34:33.212Z,28.8
2018-08-02T10:39:35.600Z,29
2018-08-02T10:44:38.035Z,29.2
2018-08-02T10:49:40.959Z,29.4
2018-08-02T10:54:43.038Z,29.5
2018-08-02T10:59:45.323Z,29.5
2018-08-02T11:04:47.763Z,29.5
2018-08-02T11:09:50.335Z,29.2
2018-08-02T11:14:52.679Z,29.2
2018-08-02T11:19:55.467Z,29
2018-08-02T11:24:57.733Z,29.1
2018-08-02T11:30:00.165Z,29.4
2018-08-02T11:35:02.640Z,29
2018-08-02T11:40:05.079Z,29
2018-08-02T11:45:07.462Z,29
2018-08-02T11:50:10.839Z,29
2018-08-02T11:55:12.446Z,28.9
2018-08-02T12:00:15.030Z,29.3
2018-08-02T12:05:17.712Z,29.7
2018-08-02T12:10:19.734Z,29.9
2018-08-02T12:15:22.397Z,30.2
2018-08-02T12:20:24.960Z,30.2
2018-08-02T12:25:27.202Z,30.3
2018-08-02T12:30:29.718Z,30.3
2018-08-02T12:40:34.495Z,30.3
2018-08-02T12:45:36.946Z,30.3
2018-08-02T12:50:39.421Z,30.3
2018-08-02T12:55:41.932Z,30.2
2018-08-02T13:00:44.455Z,30.3
2018-08-02T13:05:47.063Z,30.4
2018-08-02T13:10:49.307Z,30.3
2018-08-02T13:15:51.746Z,30.4
2018-08-02T13:20:54.529Z,30.4
2018-08-02T13:25:56.912Z,30.4
2018-08-02T13:30:59.134Z,30.7
2018-08-02T13:36:02.875Z,31.1
2018-08-02T13:41:04.123Z,31.1
2018-08-02T13:46:07.408Z,31.1
2018-08-02T13:51:09.039Z,31
2018-08-02T13:56:11.513Z,31
2018-08-02T14:01:13.920Z,31.1
2018-08-02T14:06:16.705Z,31.2
2018-08-02T14:11:18.846Z,31.4
2018-08-02T14:16:21.251Z,31.3
2018-08-02T14:21:23.695Z,31.2
2018-08-02T14:26:26.205Z,31.4
2018-08-02T14:31:28.649Z,31.7
2018-08-02T14:36:31.262Z,31.5
2018-08-02T14:41:33.562Z,31.7
2018-08-02T14:46:36.025Z,32
2018-08-02T14:51:38.646Z,32
2018-08-02T14:56:41.670Z,31.8
2018-08-02T15:01:43.449Z,31.8
2018-08-02T15:06:47.234Z,31.9
2018-08-02T15:11:48.319Z,31.8
2018-08-02T15:16:51.338Z,31.6
2018-08-02T15:21:53.245Z,31.4
2018-08-02T15:26:55.755Z,31.1
2018-08-02T15:37:00.692Z,30.9
2018-08-02T15:42:03.170Z,31
2018-08-02T15:47:05.609Z,31
2018-08-02T15:52:08.007Z,31
2018-08-02T15:57:10.579Z,30.8
2018-08-02T16:02:12.894Z,30.7
2018-08-02T16:07:15.378Z,30.5
2018-08-02T16:12:17.844Z,30.3
2018-08-02T16:17:20.325Z,30.3
2018-08-02T16:22:22.722Z,30.3
2018-08-02T16:27:25.297Z,30.4
2018-08-02T16:32:27.927Z,30.3
2018-08-02T16:37:30.121Z,30.2
2018-08-02T16:42:32.615Z,30
2018-08-02T16:47:35.023Z,29.7
2018-08-02T16:52:37.578Z,29.4
2018-08-02T16:57:39.970Z,29.2
2018-08-02T17:02:42.428Z,29.2
2018-08-02T17:07:44.906Z,29
2018-08-02T17:12:47.497Z,28.9
2018-08-02T17:17:49.805Z,28.7
2018-08-02T17:22:52.372Z,28.7
2018-08-02T17:27:54.774Z,28.5
2018-08-02T17:32:57.434Z,28.4
2018-08-02T17:43:02.397Z,28.3
2018-08-02T17:53:07.052Z,28.2
2018-08-02T17:58:09.720Z,28.1
2018-08-02T18:08:14.450Z,27.9
2018-08-02T18:13:16.934Z,27.8
2018-08-02T18:18:19.372Z,27.7
2018-08-02T18:23:21.771Z,27.8
2018-08-02T18:28:24.258Z,27.8
2018-08-02T18:33:26.710Z,27.6
2018-08-02T18:38:29.202Z,27.4
2018-08-02T18:43:31.636Z,27.2
2018-08-02T18:48:34.142Z,26.9
2018-08-02T18:53:36.806Z,26.5
2018-08-02T19:03:41.535Z,26.1
2018-08-02T19:08:43.935Z,26
2018-08-02T19:13:46.508Z,25.7
2018-08-02T19:18:49.233Z,25.4
2018-08-02T19:23:51.533Z,25.3
2018-08-02T19:28:53.781Z,25.2
2018-08-02T19:33:56.311Z,25.2
2018-08-02T19:38:58.862Z,25.1
2018-08-02T19:44:01.428Z,25
2018-08-02T19:49:04.568Z,25
2018-08-02T19:54:06.025Z,24.9
2018-08-02T19:59:08.475Z,24.9
2018-08-02T20:04:10.961Z,24.7
2018-08-02T20:09:13.390Z,24.6
2018-08-02T20:14:15.961Z,24.5
2018-08-02T20:19:18.325Z,24.5
2018-08-02T20:24:21.129Z,24.5
2018-08-02T20:29:23.256Z,24.3
2018-08-02T20:34:25.736Z,24.2
2018-08-02T20:39:28.194Z,24
2018-08-02T20:44:30.748Z,23.8
2018-08-02T20:49:33.185Z,23.6
2018-08-02T20:54:35.532Z,23.3
2018-08-02T20:59:38.007Z,23.2
2018-08-02T21:04:40.543Z,23
2018-08-02T21:09:43.361Z,22.9
2018-08-02T21:14:45.361Z,22.5
2018-08-02T21:19:47.984Z,22.3
2018-08-02T21:24:50.341Z,22.2
2018-08-02T21:29:52.778Z,22.2
2018-08-02T21:34:55.432Z,22
2018-08-02T21:39:57.781Z,21.8
2018-08-02T21:45:00.420Z,21.7
2018-08-02T21:50:02.930Z,21.5
2018-08-02T22:00:07.850Z,21.4
2018-08-02T22:05:09.961Z,21.4
2018-08-02T22:10:12.423Z,21.4
2018-08-02T22:15:14.867Z,21.1
2018-08-02T22:20:17.482Z,21.1
2018-08-02T22:25:20.564Z,21.2
2018-08-02T22:30:22.314Z,21.2
2018-08-02T22:35:24.975Z,21.2
2018-08-02T22:40:27.317Z,21.2
2018-08-02T22:45:29.619Z,21.2
2018-08-02T22:50:32.079Z,21.2
2018-08-02T22:55:34.525Z,21.1
2018-08-02T23:00:36.983Z,21
2018-08-02T23:05:39.557Z,20.9
2018-08-02T23:10:42.103Z,20.9
2018-08-02T23:15:44.485Z,20.8
2018-08-02T23:20:46.971Z,20.8
2018-08-02T23:25:49.360Z,20.7
2018-08-02T23:30:51.876Z,20.7
2018-08-02T23:35:54.303Z,20.7
2018-08-02T23:40:56.697Z,20.8
2018-08-02T23:45:59.889Z,20.9
2018-08-02T23:51:01.589Z,20.9
2018-08-02T23:56:04.057Z,21
